Time;durP1;ratioP1;P1;durP2;ratioP2;P2;SDS_P1;SDS_P2;PMS_P1;PMS_P2;Temp;Humidity;BMP_temperature;BMP_pressure;BME280_temperature;BME280_humidity;BME280_pressure;Samples;Min_cycle;Max_cycle;Signal;HPM_P1;HPM_P2
2021/01/14 00:03:17;;;;;;;13.63;9.63;;;;;;;2.79;100.00;100931.91;10174884;29;20456;-72
2021/01/14 00:08:18;;;;;;;19.08;11.05;;;;;;;2.73;100.00;100929.38;10174959;29;20055;-71
2021/01/14 00:13:19;;;;;;;18.42;11.20;;;;;;;2.84;100.00;100934.50;10175459;29;20048;-72
2021/01/14 00:18:20;;;;;;;12.88;8.68;;;;;;;2.77;100.00;100944.06;10157895;29;20048;-71
2021/01/14 00:23:21;;;;;;;16.92;8.68;;;;;;;2.68;100.00;100949.34;10173674;29;20052;-72
2021/01/14 00:28:22;;;;;;;17.60;8.90;;;;;;;2.75;100.00;100966.66;10173797;29;20051;-72
2021/01/14 00:33:23;;;;;;;16.02;7.53;;;;;;;2.80;100.00;100988.28;10174735;29;20048;-71
2021/01/14 00:38:24;;;;;;;19.05;7.45;;;;;;;2.78;100.00;100991.75;10174293;29;20377;-72
2021/01/14 00:43:26;;;;;;;14.07;7.03;;;;;;;2.77;100.00;100998.69;10174562;29;20462;-71
2021/01/14 00:48:27;;;;;;;10.43;5.80;;;;;;;2.75;100.00;100999.59;10174480;29;20044;-71
2021/01/14 00:53:28;;;;;;;12.90;4.93;;;;;;;2.79;100.00;101004.75;10175004;29;20059;-71
2021/01/14 00:58:29;;;;;;;9.80;4.97;;;;;;;2.81;100.00;101008.22;10156489;29;20059;-72
2021/01/14 01:03:30;;;;;;;14.35;4.93;;;;;;;2.80;100.00;101018.63;10173507;29;20040;-71
2021/01/14 01:08:31;;;;;;;13.90;4.68;;;;;;;2.77;100.00;101027.31;10174563;29;20058;-71
2021/01/14 01:13:32;;;;;;;8.77;3.08;;;;;;;2.69;100.00;101044.72;10157101;29;20192;-72
2021/01/14 01:18:33;;;;;;;11.23;3.38;;;;;;;2.59;100.00;101040.44;10176378;29;20055;-71
2021/01/14 01:23:35;;;;;;;8.57;3.00;;;;;;;2.60;100.00;101043.00;10181137;29;20048;-71
2021/01/14 01:28:36;;;;;;;7.65;2.60;;;;;;;2.53;100.00;101033.50;10181037;29;20040;-72
2021/01/14 01:33:38;;;;;;;11.23;3.45;;;;;;;2.51;100.00;101043.06;10161311;29;20421;-72
2021/01/14 01:38:40;;;;;;;10.00;2.80;;;;;;;2.51;100.00;101034.41;10180210;29;20040;-72
2021/01/14 01:43:41;;;;;;;8.10;2.53;;;;;;;2.38;100.00;101036.19;10180199;29;20068;-72
2021/01/14 01:48:43;;;;;;;9.88;2.40;;;;;;;2.36;100.00;101035.31;10180379;29;20485;-72
2021/01/14 01:53:44;;;;;;;8.98;2.10;;;;;;;2.25;100.00;101024.13;10179593;29;20389;-71
2021/01/14 01:58:46;;;;;;;11.63;3.05;;;;;;;2.15;100.00;101007.69;10180696;29;20044;-71
2021/01/14 02:03:47;;;;;;;8.27;2.00;;;;;;;2.19;100.00;101000.72;10162507;29;20405;-72
2021/01/14 02:08:59;;;;;;;4.60;1.60;;;;;;;2.24;100.00;101009.41;10195632;29;20567;-72
2021/01/14 02:14:19;;;;;;;9.32;2.83;;;;;;;2.17;100.00;101005.09;10179894;29;20822;-72
2021/01/14 02:19:25;;;;;;;6.30;2.05;;;;;;;2.06;100.00;100993.88;10144693;29;20482;-72
2021/01/14 02:24:59;;;;;;;7.75;2.40;;;;;;;2.08;100.00;101002.53;10170037;29;20052;-72
2021/01/14 02:30:02;;;;;;;9.40;2.25;;;;;;;2.05;100.00;101005.13;10132148;29;20048;-72
2021/01/14 02:35:04;;;;;;;7.45;1.75;;;;;;;1.92;100.00;100994.75;10139330;29;20048;-72
2021/01/14 02:40:06;;;;;;;4.97;1.55;;;;;;;1.95;100.00;101001.69;10138777;29;20509;-72
2021/01/14 02:45:08;;;;;;;6.05;1.90;;;;;;;1.86;100.00;100994.78;10139567;29;20056;-71
2021/01/14 02:50:12;;;;;;;8.77;2.17;;;;;;;1.80;100.00;101004.31;10171492;29;20044;-71
2021/01/14 02:55:13;;;;;;;10.68;3.00;;;;;;;1.64;100.00;101003.50;10176713;29;20048;-72
2021/01/14 03:00:15;;;;;;;5.22;2.03;;;;;;;1.76;100.00;101025.97;10177094;29;20059;-72
2021/01/14 03:05:16;;;;;;;9.77;2.75;;;;;;;1.66;100.00;101034.66;10157504;29;20448;-72
2021/01/14 03:10:17;;;;;;;5.53;1.88;;;;;;;1.58;100.00;101026.00;10206054;29;20044;-71
2021/01/14 03:15:18;;;;;;;7.43;2.30;;;;;;;1.44;100.00;101013.88;10181162;29;20048;-72
2021/01/14 03:20:19;;;;;;;5.20;2.20;;;;;;;1.55;100.00;101033.78;10177070;29;20044;-71
2021/01/14 03:25:21;;;;;;;8.23;2.05;;;;;;;1.66;100.00;101042.44;10173344;29;20040;-72
2021/01/14 03:30:22;;;;;;;8.88;1.83;;;;;;;1.55;100.00;101016.47;10176503;29;20056;-71
2021/01/14 03:35:24;;;;;;;6.25;1.92;;;;;;;1.53;100.00;101033.78;10176182;29;20044;-71
2021/01/14 03:40:25;;;;;;;6.47;1.88;;;;;;;1.51;100.00;101044.16;10174689;29;20424;-72
2021/01/14 03:45:26;;;;;;;5.00;1.88;;;;;;;1.47;100.00;101037.25;10176071;29;20472;-72
2021/01/14 03:50:27;;;;;;;6.43;2.03;;;;;;;1.44;100.00;101039.84;10175804;29;20048;-71
2021/01/14 03:55:28;;;;;;;7.57;2.10;;;;;;;1.37;100.00;101051.09;10175695;29;20047;-71
2021/01/14 04:00:29;;;;;;;5.32;1.73;;;;;;;1.19;100.00;101039.84;10175746;29;20055;-72
2021/01/14 04:05:30;;;;;;;7.75;2.20;;;;;;;1.23;100.00;101049.38;10158375;29;20509;-71
2021/01/14 04:10:31;;;;;;;6.95;1.65;;;;;;;1.16;100.00;101048.50;10183892;29;20048;-72
2021/01/14 04:15:32;;;;;;;7.75;2.25;;;;;;;1.22;100.00;101063.19;10214694;29;20086;-72
2021/01/14 04:20:34;;;;;;;7.38;2.30;;;;;;;1.21;100.00;101054.56;10213846;29;20047;-71
2021/01/14 04:25:35;;;;;;;8.18;2.15;;;;;;;1.36;100.00;101075.31;10213516;29;20055;-72
2021/01/14 04:30:36;;;;;;;9.15;2.88;;;;;;;1.38;100.00;101060.63;10167709;29;20417;-72
2021/01/14 04:35:45;;;;;;;10.35;2.50;;;;;;;1.43;100.00;101056.28;10174382;29;20480;-72
2021/01/14 04:41:03;;;;;;;6.35;2.33;;;;;;;1.39;100.00;101058.91;10156402;29;20063;-72
2021/01/14 04:46:06;;;;;;;6.20;2.22;;;;;;;1.29;100.00;101054.56;10160994;29;20099;-71
2021/01/14 04:51:13;;;;;;;10.48;2.53;;;;;;;1.25;100.00;101058.91;10174002;29;20051;-72
2021/01/14 04:56:17;;;;;;;8.38;2.10;;;;;;;1.25;100.00;101058.91;10165263;29;20468;-72
2021/01/14 05:01:24;;;;;;;5.80;1.80;;;;;;;1.24;100.00;101062.34;10181707;29;20047;-72
2021/01/14 05:06:26;;;;;;;5.43;1.70;;;;;;;1.28;100.00;101076.19;10180703;29;20103;-72
2021/01/14 05:11:36;;;;;;;6.72;2.85;;;;;;;1.17;100.00;101060.63;10220320;29;20055;-72
2021/01/14 05:16:37;;;;;;;8.77;1.92;;;;;;;1.02;100.00;101045.00;10188988;29;20044;-72
2021/01/14 05:21:40;;;;;;;6.57;2.00;;;;;;;0.91;100.00;101049.31;10179673;29;20080;-72
2021/01/14 05:26:45;;;;;;;5.65;2.60;;;;;;;0.90;100.00;101048.47;10180528;29;20130;-72
2021/01/14 05:31:48;;;;;;;6.55;1.48;;;;;;;0.93;100.00;101061.41;10180371;29;20396;-72
2021/01/14 05:36:54;;;;;;;5.45;1.98;;;;;;;1.00;100.00;101067.50;10180682;29;20040;-72
2021/01/14 05:41:56;;;;;;;5.70;2.03;;;;;;;1.11;100.00;101070.97;10161668;29;20375;-72
2021/01/14 05:46:57;;;;;;;7.18;2.30;;;;;;;1.14;100.00;101077.03;10172108;29;20118;-71
2021/01/14 05:52:00;;;;;;;8.23;1.95;;;;;;;1.20;100.00;101090.88;10178947;29;20055;-72
2021/01/14 05:57:11;;;;;;;7.85;2.30;;;;;;;1.17;100.00;101085.69;10178227;29;20056;-72
2021/01/14 06:02:27;;;;;;;6.80;2.03;;;;;;;1.11;100.00;101087.41;10168061;29;20481;-71
2021/01/14 06:07:39;;;;;;;11.18;2.40;;;;;;;0.97;100.00;101080.47;10178887;29;20047;-72
2021/01/14 06:12:48;;;;;;;8.82;3.00;;;;;;;0.99;100.00;101083.94;10161610;29;20048;-72
2021/01/14 06:17:50;;;;;;;7.75;2.13;;;;;;;0.92;100.00;101092.56;10139990;29;20108;-72
2021/01/14 06:22:55;;;;;;;4.57;1.90;;;;;;;0.83;100.00;101084.75;10162567;29;20469;-72
2021/01/14 06:27:56;;;;;;;4.55;1.90;;;;;;;0.70;100.00;101100.25;10162247;29;20112;-71
2021/01/14 06:33:01;;;;;;;8.30;2.28;;;;;;;0.64;100.00;101109.75;10178995;29;20482;-71
2021/01/14 06:38:09;;;;;;;8.43;2.47;;;;;;;0.69;100.00;101124.44;10178502;29;20051;-72
2021/01/14 06:43:13;;;;;;;6.78;1.92;;;;;;;0.70;100.00;101130.50;10177680;29;20052;-71
2021/01/14 06:48:22;;;;;;;6.38;2.63;;;;;;;0.62;100.00;101125.28;10176864;29;20052;-71
2021/01/14 06:53:23;;;;;;;8.90;2.63;;;;;;;0.58;100.00;101123.56;10177337;29;20063;-71
2021/01/14 06:58:25;;;;;;;8.63;2.40;;;;;;;0.56;100.00;101135.63;10177498;29;20051;-72
2021/01/14 07:03:44;;;;;;;7.90;2.65;;;;;;;0.54;100.00;101131.28;10182206;29;20043;-72
2021/01/14 07:09:11;;;;;;;11.13;3.35;;;;;;;0.66;100.00;101137.41;10181425;29;20052;-75
2021/01/14 07:14:16;;;;;;;6.45;2.20;;;;;;;0.61;100.00;101133.06;10153117;29;20048;-72
2021/01/14 07:19:17;;;;;;;7.47;2.30;;;;;;;0.68;100.00;101146.03;10163958;29;20048;-73
2021/01/14 07:24:20;;;;;;;10.07;3.05;;;;;;;0.70;100.00;101159.03;10174521;29;20051;-73
2021/01/14 07:29:22;;;;;;;8.95;2.80;;;;;;;0.72;100.00;101158.19;10157890;29;20063;-72
2021/01/14 07:34:36;;;;;;;6.03;2.28;;;;;;;0.83;100.00;101173.78;10172527;29;20052;-72
2021/01/14 07:39:49;;;;;;;6.53;2.30;;;;;;;0.94;100.00;101179.88;10175270;29;20054;-70
2021/01/14 07:44:51;;;;;;;6.85;2.45;;;;;;;0.82;100.00;101172.06;10174913;29;20408;-71
2021/01/14 07:50:17;;;;;;;7.75;2.95;;;;;;;0.88;100.00;101189.38;10574025;27;20374;-71
2021/01/14 07:55:37;;;;;;;7.60;2.90;;;;;;;0.90;100.00;101192.84;10516575;28;20055;-72
2021/01/14 08:00:41;;;;;;;6.20;2.42;;;;;;;0.93;100.00;101193.69;10531498;28;20427;-72
2021/01/14 08:05:44;;;;;;;6.23;2.70;;;;;;;0.99;100.00;101203.25;10543571;28;20047;-72
2021/01/14 08:10:45;;;;;;;8.20;2.72;;;;;;;0.84;100.00;101185.88;10542919;28;20059;-71
2021/01/14 08:15:46;;;;;;;8.82;3.90;;;;;;;0.99;100.00;101206.72;10574705;28;20081;-71
2021/01/14 08:21:28;;;;;;;6.68;2.78;;;;;;;1.13;100.00;101227.53;10569339;28;20056;-71
2021/01/14 08:26:54;;;;;;;7.93;2.97;;;;;;;1.17;100.00;101216.31;10531200;28;20441;-72
2021/01/14 08:31:56;;;;;;;8.57;2.85;;;;;;;1.19;100.00;101218.88;10489700;28;20052;-70
2021/01/14 08:37:33;;;;;;;8.13;3.45;;;;;;;1.25;100.00;101217.19;10489301;28;20072;-72
2021/01/14 08:42:36;;;;;;;10.88;4.00;;;;;;;1.39;100.00;101236.28;10524741;28;20407;-71
2021/01/14 08:48:01;;;;;;;8.80;3.78;;;;;;;1.45;100.00;101238.88;10529631;28;20062;-71
2021/01/14 08:53:26;;;;;;;11.18;3.40;;;;;;;1.45;100.00;101238.88;10529966;28;20051;-70
2021/01/14 08:58:48;;;;;;;7.82;3.92;;;;;;;1.67;100.00;101262.31;10508397;28;20045;-71
2021/01/14 09:03:52;;;;;;;8.77;3.90;;;;;;;1.78;100.00;101248.47;10514962;28;20040;-71
2021/01/14 09:08:54;;;;;;;10.77;3.78;;;;;;;1.89;100.00;101271.88;10500491;28;20052;-71
2021/01/14 09:14:16;;;;;;;24.95;12.98;;;;;;;1.86;100.00;101277.06;10541008;28;20055;-71
2021/01/14 09:19:17;;;;;;;293.40;190.35;;;;;;;1.95;100.00;101281.41;10544374;28;20051;-71
2021/01/14 09:24:19;;;;;;;84.15;68.70;;;;;;;1.87;100.00;101273.59;10491206;28;20044;-71
2021/01/14 09:29:29;;;;;;;111.20;95.85;;;;;;;1.78;100.00;101282.25;10501785;28;20048;-71
2021/01/14 09:34:30;;;;;;;109.47;100.85;;;;;;;1.69;100.00;101268.38;10501181;28;20040;-71
2021/01/14 09:39:31;;;;;;;28.20;25.15;;;;;;;1.68;100.00;101262.31;10501288;28;20047;-71
2021/01/14 09:44:33;;;;;;;41.58;37.15;;;;;;;1.58;100.00;101252.78;10499975;28;20053;-72
2021/01/14 09:49:35;;;;;;;51.30;39.40;;;;;;;1.62;100.00;101251.91;10490661;28;20060;-71
2021/01/14 09:54:37;;;;;;;12.65;4.63;;;;;;;1.68;100.00;101254.50;10476308;28;20129;-71
2021/01/14 09:59:41;;;;;;;11.35;6.80;;;;;;;1.68;100.00;101256.25;10491621;28;20408;-72
2021/01/14 10:04:44;;;;;;;18.02;12.93;;;;;;;1.66;100.00;101251.06;10511753;28;20048;-72
2021/01/14 10:09:49;;;;;;;13.30;10.65;;;;;;;1.90;100.00;101263.22;10480075;28;20032;-73
2021/01/14 10:15:07;;;;;;;13.65;8.77;;;;;;;1.88;100.00;101250.22;10539900;28;20036;-73
2021/01/14 10:20:12;;;;;;;17.40;7.70;;;;;;;1.85;100.00;101247.63;10507111;28;20055;-73
2021/01/14 10:25:14;;;;;;;10.47;7.13;;;;;;;1.94;100.00;101245.91;10498778;28;20041;-71
2021/01/14 10:30:20;;;;;;;14.52;7.47;;;;;;;1.88;100.00;101244.16;10498012;28;20283;-73
2021/01/14 10:35:26;;;;;;;36.65;30.13;;;;;;;1.95;100.00;101243.31;10497210;28;20086;-71
2021/01/14 10:40:33;;;;;;;9.52;4.22;;;;;;;2.17;100.00;101257.19;10497435;28;20052;-71
2021/01/14 10:45:36;;;;;;;9.23;4.57;;;;;;;2.12;100.00;101251.13;10494874;28;20053;-71
2021/01/14 10:50:41;;;;;;;10.40;5.40;;;;;;;2.01;100.00;101227.72;10500364;28;20040;-71
2021/01/14 10:55:45;;;;;;;11.52;5.15;;;;;;;1.92;100.00;101224.28;10496667;28;20048;-71
2021/01/14 11:00:46;;;;;;;10.73;5.60;;;;;;;2.10;100.00;101243.31;10496911;28;20549;-71
2021/01/14 11:05:53;;;;;;;9.77;4.88;;;;;;;2.01;100.00;101219.09;10524349;28;20123;-71
2021/01/14 11:11:02;;;;;;;12.27;5.72;;;;;;;1.95;100.00;101216.47;10510219;28;20047;-71
2021/01/14 11:16:11;;;;;;;12.43;6.47;;;;;;;1.86;100.00;101219.91;10507042;28;20404;-71
2021/01/14 11:21:16;;;;;;;11.52;6.30;;;;;;;1.81;100.00;101217.31;10497168;28;20090;-71
2021/01/14 11:26:20;;;;;;;10.95;6.35;;;;;;;1.68;100.00;101201.69;10486285;28;20049;-71
2021/01/14 11:31:23;;;;;;;11.82;7.38;;;;;;;1.69;100.00;101206.91;10495970;28;20066;-71
2021/01/14 11:36:24;;;;;;;11.50;6.35;;;;;;;1.82;100.00;101211.28;10496477;28;20052;-71
2021/01/14 11:41:26;;;;;;;11.38;5.80;;;;;;;1.74;100.00;101193.94;10459993;28;20447;-71
2021/01/14 11:46:27;;;;;;;9.57;6.05;;;;;;;1.81;100.00;101206.06;10454960;28;20076;-71
2021/01/14 11:51:28;;;;;;;11.50;5.85;;;;;;;1.78;100.00;101193.94;10454979;28;20056;-70
2021/01/14 11:56:29;;;;;;;7.15;5.55;;;;;;;1.82;100.00;101180.09;10488956;28;20041;-71
2021/01/14 12:01:30;;;;;;;7.75;6.13;;;;;;;1.77;100.00;101166.22;10535445;28;20068;-71
2021/01/14 12:06:32;;;;;;;8.48;6.03;;;;;;;1.80;100.00;101147.19;10500423;28;20051;-71
2021/01/14 12:11:33;;;;;;;7.88;5.78;;;;;;;2.05;100.00;101156.69;10512621;28;20396;-71
2021/01/14 12:16:34;;;;;;;10.10;4.95;;;;;;;2.08;100.00;101164.50;10508866;28;20044;-71
2021/01/14 12:21:35;;;;;;;6.20;5.30;;;;;;;2.10;100.00;101156.69;10503891;28;20044;-71
2021/01/14 12:26:36;;;;;;;8.63;5.32;;;;;;;2.00;100.00;101135.06;10495581;28;20037;-71
2021/01/14 12:31:38;;;;;;;6.88;4.07;;;;;;;2.02;99.35;101141.09;10500604;28;20127;-71
2021/01/14 12:36:39;;;;;;;8.80;4.20;;;;;;;1.84;97.69;101134.19;10533546;28;20051;-71
2021/01/14 12:41:41;;;;;;;9.35;4.50;;;;;;;1.79;99.33;101116.88;10508081;28;20040;-71
2021/01/14 12:46:45;;;;;;;8.25;3.85;;;;;;;1.98;99.74;101133.31;10501606;28;20048;-72
2021/01/14 12:51:47;;;;;;;5.40;3.35;;;;;;;1.97;97.79;101119.47;10508404;28;20119;-71
2021/01/14 12:56:49;;;;;;;9.50;3.80;;;;;;;1.97;98.01;101119.47;10524137;28;20040;-71
2021/01/14 13:01:50;;;;;;;7.05;4.45;;;;;;;2.07;100.00;101109.94;10504163;28;20434;-72
2021/01/14 13:06:51;;;;;;;9.93;4.45;;;;;;;2.03;100.00;101095.19;10511976;28;20494;-70
2021/01/14 13:11:56;;;;;;;12.90;4.40;;;;;;;1.98;100.00;101115.13;10504983;28;20515;-74
2021/01/14 13:16:57;;;;;;;7.60;4.15;;;;;;;1.97;99.29;101097.81;10516792;28;20055;-72
2021/01/14 13:21:58;;;;;;;6.03;3.70;;;;;;;2.02;98.92;101094.34;10501541;28;20045;-76
2021/01/14 13:26:59;;;;;;;9.38;3.85;;;;;;;2.01;100.00;101087.41;10495875;28;20051;-73
2021/01/14 13:32:00;;;;;;;7.82;4.07;;;;;;;2.16;100.00;101092.59;10500576;28;20047;-74
2021/01/14 13:37:07;;;;;;;7.93;4.07;;;;;;;2.31;99.54;101109.88;10500194;28;20411;-74
2021/01/14 13:42:15;;;;;;;5.25;3.88;;;;;;;2.18;98.56;101082.16;10497027;28;20094;-74
2021/01/14 13:47:16;;;;;;;9.23;4.43;;;;;;;2.47;97.54;101098.56;10499730;28;20044;-75
2021/01/14 13:52:17;;;;;;;5.88;4.03;;;;;;;2.47;98.68;101095.97;10492385;28;20051;-75
2021/01/14 13:57:18;;;;;;;10.90;4.65;;;;;;;2.30;99.34;101092.53;10491621;28;20122;-74
2021/01/14 14:02:20;;;;;;;9.98;4.90;;;;;;;2.20;99.57;101091.69;10490270;28;20525;-75
2021/01/14 14:07:21;;;;;;;7.68;4.55;;;;;;;2.10;99.27;101070.94;10499610;28;20036;-75
2021/01/14 14:12:22;;;;;;;11.50;4.95;;;;;;;2.01;100.00;101077.00;10496524;28;20045;-73
2021/01/14 14:17:24;;;;;;;10.65;5.22;;;;;;;2.03;100.00;101085.66;10496788;28;20488;-74
2021/01/14 14:22:25;;;;;;;10.23;4.85;;;;;;;1.90;100.00;101065.78;10498825;28;20117;-75
2021/01/14 14:27:26;;;;;;;9.85;4.50;;;;;;;1.97;100.00;101090.88;10496062;28;20043;-74
2021/01/14 14:32:27;;;;;;;6.53;4.03;;;;;;;2.04;100.00;101099.53;10509803;28;20499;-73
2021/01/14 14:37:29;;;;;;;6.32;3.95;;;;;;;1.95;100.00;101086.56;10512930;28;20059;-74
2021/01/14 14:42:30;;;;;;;9.82;4.65;;;;;;;1.88;100.00;101077.91;10497864;28;20045;-76
2021/01/14 14:47:32;;;;;;;6.55;3.95;;;;;;;1.86;100.00;101084.81;10498112;28;20053;-74
2021/01/14 14:52:33;;;;;;;7.20;3.90;;;;;;;1.77;100.00;101082.25;10494095;28;20098;-75
2021/01/14 14:57:35;;;;;;;10.82;5.15;;;;;;;1.81;100.00;101081.38;10496137;28;20101;-75
2021/01/14 15:02:36;;;;;;;7.28;4.88;;;;;;;1.84;100.00;101105.59;10505177;28;20055;-74
2021/01/14 15:07:37;;;;;;;8.48;5.18;;;;;;;1.81;100.00;101097.84;10503626;28;20051;-74
2021/01/14 15:12:38;;;;;;;10.13;4.88;;;;;;;1.78;100.00;101103.03;10520510;28;20052;-74
2021/01/14 15:17:39;;;;;;;7.80;3.80;;;;;;;1.76;100.00;101096.94;10515079;28;20514;-72
2021/01/14 15:22:40;;;;;;;8.75;4.60;;;;;;;1.68;100.00;101101.28;10477335;28;20483;-72
2021/01/14 15:27:41;;;;;;;7.85;4.70;;;;;;;1.51;100.00;101100.41;10494482;28;20040;-72
2021/01/14 15:32:45;;;;;;;8.40;4.68;;;;;;;1.46;100.00;101108.22;10494360;28;20446;-72
2021/01/14 15:37:48;;;;;;;7.20;3.88;;;;;;;1.60;100.00;101117.72;10494801;28;20182;-72
2021/01/14 15:42:49;;;;;;;6.68;3.38;;;;;;;1.44;100.00;101115.13;10497485;28;20047;-72
2021/01/14 15:47:50;;;;;;;8.48;5.13;;;;;;;1.50;100.00;101125.53;10497302;28;20052;-71
2021/01/14 15:52:51;;;;;;;5.68;3.70;;;;;;;1.53;100.00;101132.44;10497691;28;20369;-72
2021/01/14 15:57:53;;;;;;;7.70;3.22;;;;;;;1.47;100.00;101122.06;10497134;28;20036;-72
2021/01/14 16:02:54;;;;;;;7.85;3.88;;;;;;;1.41;100.00;101117.75;10510209;28;20478;-72
2021/01/14 16:07:55;;;;;;;8.20;4.03;;;;;;;1.41;100.00;101125.53;10541361;28;20490;-72
2021/01/14 16:12:57;;;;;;;6.28;3.33;;;;;;;1.38;100.00;101117.72;10543110;28;20044;-72
2021/01/14 16:17:58;;;;;;;7.22;3.40;;;;;;;1.26;100.00;101116.81;10506006;28;20048;-71
2021/01/14 16:22:59;;;;;;;5.55;3.22;;;;;;;1.25;100.00;101118.59;10505462;28;20044;-72
2021/01/14 16:28:00;;;;;;;7.18;3.63;;;;;;;1.13;100.00;101096.06;10502327;28;20040;-72
2021/01/14 16:33:01;;;;;;;6.72;3.65;;;;;;;1.12;100.00;101114.22;10504520;28;20033;-71
2021/01/14 16:38:02;;;;;;;7.80;4.03;;;;;;;0.93;100.00;101096.84;10503866;28;20040;-71
2021/01/14 16:43:03;;;;;;;10.40;4.72;;;;;;;0.82;100.00;101098.56;10504135;28;20036;-71
2021/01/14 16:48:05;;;;;;;9.63;4.40;;;;;;;0.88;100.00;101104.66;10503930;28;20086;-72
2021/01/14 16:53:06;;;;;;;8.60;3.95;;;;;;;0.85;100.00;101099.44;10504202;28;20055;-72
2021/01/14 16:58:07;;;;;;;7.20;3.50;;;;;;;0.79;100.00;101089.06;10503337;28;20074;-72
2021/01/14 17:03:08;;;;;;;7.20;4.28;;;;;;;0.82;100.00;101096.84;10517759;28;20488;-71
2021/01/14 17:08:09;;;;;;;8.25;4.25;;;;;;;0.76;100.00;101092.50;10545394;28;20052;-72
2021/01/14 17:13:10;;;;;;;11.13;4.63;;;;;;;0.80;100.00;101102.88;10539533;28;20048;-73
2021/01/14 17:18:12;;;;;;;9.45;4.90;;;;;;;0.67;100.00;101089.84;10514467;28;20082;-73
2021/01/14 17:23:13;;;;;;;8.07;3.83;;;;;;;0.73;100.00;101102.00;10499481;28;20408;-73
2021/01/14 17:28:14;;;;;;;7.53;3.85;;;;;;;0.82;100.00;101115.00;10502038;28;20040;-73
2021/01/14 17:33:15;;;;;;;6.28;4.00;;;;;;;0.76;100.00;101102.88;10466172;28;20055;-73
2021/01/14 17:38:17;;;;;;;5.07;3.55;;;;;;;0.88;100.00;101119.34;10488438;28;20106;-73
2021/01/14 17:43:19;;;;;;;6.38;4.00;;;;;;;0.71;100.00;101112.38;10501487;28;20075;-73
2021/01/14 17:48:21;;;;;;;7.30;4.25;;;;;;;0.69;100.00;101116.66;10499062;28;20140;-73
2021/01/14 17:53:22;;;;;;;8.15;4.15;;;;;;;0.67;100.00;101122.72;10499500;28;20055;-73
2021/01/14 17:58:23;;;;;;;7.65;4.20;;;;;;;0.63;100.00;101110.59;10499564;28;20068;-73
2021/01/14 18:03:24;;;;;;;6.20;3.92;;;;;;;0.58;100.00;101101.94;10500465;28;20090;-73
2021/01/14 18:08:25;;;;;;;9.85;4.38;;;;;;;0.66;100.00;101115.81;10499481;28;20040;-73
2021/01/14 18:13:27;;;;;;;7.05;4.72;;;;;;;0.80;100.00;101128.81;10499513;28;20052;-73
2021/01/14 18:18:28;;;;;;;6.40;4.90;;;;;;;0.74;100.00;101121.88;10499641;28;20055;-73
2021/01/14 18:23:29;;;;;;;8.23;5.15;;;;;;;0.70;100.00;101120.13;10491317;28;20048;-74
2021/01/14 18:28:30;;;;;;;5.68;3.90;;;;;;;0.80;100.00;101132.28;10498284;28;20490;-76
2021/01/14 18:33:31;;;;;;;7.30;4.00;;;;;;;0.68;100.00;101127.03;10497271;28;20043;-73
2021/01/14 18:38:32;;;;;;;7.68;4.22;;;;;;;0.66;100.00;101123.59;10499650;28;20044;-75
2021/01/14 18:43:33;;;;;;;6.07;3.92;;;;;;;0.71;100.00;101135.69;10470407;28;20059;-72
2021/01/14 18:48:34;;;;;;;9.07;6.03;;;;;;;0.57;100.00;101124.41;10462601;28;20059;-73
2021/01/14 18:53:36;;;;;;;10.57;6.60;;;;;;;0.60;100.00;101128.72;10492200;28;20044;-74
2021/01/14 18:58:39;;;;;;;9.75;6.20;;;;;;;0.41;100.00;101109.66;10497665;28;20051;-75
2021/01/14 19:03:41;;;;;;;10.45;6.10;;;;;;;0.33;100.00;101122.56;10516061;28;20040;-74
2021/01/14 19:08:51;;;;;;;10.07;6.10;;;;;;;0.45;100.00;101128.66;10490920;28;20045;-75
2021/01/14 19:13:52;;;;;;;12.90;6.47;;;;;;;0.34;100.00;101121.69;10456105;28;20045;-74
2021/01/14 19:18:53;;;;;;;6.90;4.97;;;;;;;0.37;100.00;101126.03;10489050;28;20110;-75
2021/01/14 19:23:55;;;;;;;10.27;6.00;;;;;;;0.29;100.00;101123.38;10463687;28;20037;-71
2021/01/14 19:28:56;;;;;;;7.97;6.05;;;;;;;0.31;100.00;101136.38;10473059;28;20040;-71
2021/01/14 19:33:57;;;;;;;9.40;6.05;;;;;;;0.30;100.00;101137.22;10497951;28;20052;-72
2021/01/14 19:38:58;;;;;;;7.30;5.13;;;;;;;0.38;100.00;101145.91;10488008;28;20392;-71
2021/01/14 19:43:59;;;;;;;9.32;6.25;;;;;;;0.57;100.00;101170.19;10495483;28;20051;-71
2021/01/14 19:49:03;;;;;;;7.07;5.75;;;;;;;0.63;100.00;101178.88;10494755;28;20048;-71
2021/01/14 19:54:06;;;;;;;8.57;6.57;;;;;;;0.30;100.00;101143.25;10495063;28;20094;-72
2021/01/14 19:59:08;;;;;;;8.57;5.93;;;;;;;0.27;100.00;101156.19;10495992;28;20041;-72
2021/01/14 20:04:10;;;;;;;8.13;6.30;;;;;;;0.17;100.00;101154.38;10494183;28;20107;-72
2021/01/14 20:09:11;;;;;;;9.80;5.75;;;;;;;0.16;100.00;101160.47;10495404;28;20036;-72
2021/01/14 20:14:12;;;;;;;10.70;5.90;;;;;;;0.15;100.00;101169.09;10492252;28;20498;-72
2021/01/14 20:19:13;;;;;;;10.55;6.22;;;;;;;0.14;100.00;101184.59;10496569;28;20409;-71
2021/01/14 20:24:15;;;;;;;10.27;7.30;;;;;;;0.08;100.00;101175.06;10496548;28;20044;-71
2021/01/14 20:29:17;;;;;;;8.00;6.15;;;;;;;-0.05;100.00;101176.69;10479670;28;20396;-72
2021/01/14 20:34:19;;;;;;;9.55;6.55;;;;;;;0.02;100.00;101192.28;10486075;28;20048;-72
2021/01/14 20:39:20;;;;;;;12.43;5.97;;;;;;;-0.01;100.00;101191.41;10458005;28;20103;-72
2021/01/14 20:44:21;;;;;;;6.75;5.40;;;;;;;0.11;100.00;101224.31;10469958;28;20040;-72
2021/01/14 20:49:23;;;;;;;9.75;5.97;;;;;;;0.04;100.00;101206.09;10495472;28;20048;-71
2021/01/14 20:54:24;;;;;;;8.40;5.50;;;;;;;0.17;100.00;101234.69;10492112;28;20041;-72
2021/01/14 20:59:26;;;;;;;7.35;4.85;;;;;;;0.19;100.00;101232.13;10473192;28;20044;-72
2021/01/14 21:04:27;;;;;;;8.80;5.10;;;;;;;0.18;100.00;101226.06;10503196;28;20056;-72
2021/01/14 21:09:32;;;;;;;7.38;4.30;;;;;;;0.19;100.00;101224.34;10502985;28;20066;-72
2021/01/14 21:14:48;;;;;;;10.88;5.18;;;;;;;0.27;100.00;101246.00;10481622;28;20056;-72
2021/01/14 21:19:51;;;;;;;6.30;4.30;;;;;;;0.26;100.00;101233.91;10469343;28;20484;-71
2021/01/14 21:24:52;;;;;;;6.10;4.50;;;;;;;0.26;100.00;101241.69;10493117;28;20048;-72
2021/01/14 21:29:53;;;;;;;5.95;4.85;;;;;;;0.21;100.00;101233.00;10490131;28;20464;-72
2021/01/14 21:34:54;;;;;;;9.95;5.93;;;;;;;0.21;100.00;101236.47;10487161;28;20589;-71
2021/01/14 21:39:56;;;;;;;6.10;4.20;;;;;;;0.18;100.00;101227.81;10488558;28;20450;-71
2021/01/14 21:44:57;;;;;;;6.05;4.60;;;;;;;0.04;100.00;101229.41;10497421;28;20047;-71
2021/01/14 21:49:58;;;;;;;7.78;4.60;;;;;;;-0.01;100.00;101221.63;10497247;28;20052;-72
2021/01/14 21:54:59;;;;;;;7.13;4.50;;;;;;;-0.08;100.00;101230.16;10521797;28;20042;-72
2021/01/14 22:00:00;;;;;;;6.30;4.50;;;;;;;-0.14;100.00;101232.72;10535083;28;20040;-72
2021/01/14 22:05:01;;;;;;;7.13;4.80;;;;;;;-0.33;100.00;101216.13;10532067;28;20056;-72
2021/01/14 22:10:04;;;;;;;8.85;4.60;;;;;;;-0.30;100.00;101236.00;10543119;28;20467;-72
2021/01/14 22:15:10;;;;;;;8.98;5.90;;;;;;;-0.39;100.00;101234.19;10543453;28;20067;-71
2021/01/14 22:20:11;;;;;;;26.02;17.23;;;;;;;-0.40;100.00;101256.63;10543301;28;20044;-71
2021/01/14 22:25:13;;;;;;;14.77;13.13;;;;;;;-0.58;100.00;101245.19;10542226;28;20044;-71
2021/01/14 22:30:14;;;;;;;21.00;18.67;;;;;;;-0.53;100.00;101259.94;10513732;28;20429;-71
2021/01/14 22:35:15;;;;;;;9.90;8.38;;;;;;;-0.60;100.00;101260.72;10500045;28;20044;-71
2021/01/14 22:40:17;;;;;;;10.18;8.85;;;;;;;-0.63;100.00;101272.75;10499186;28;20052;-71
2021/01/14 22:45:18;;;;;;;10.70;8.27;;;;;;;-0.69;100.00;101265.78;10499729;28;20064;-71
2021/01/14 22:50:19;;;;;;;9.75;7.32;;;;;;;-0.65;100.00;101275.31;10489369;28;20408;-71
2021/01/14 22:55:20;;;;;;;9.55;7.35;;;;;;;-0.65;100.00;101289.97;10499517;28;20049;-71
2021/01/14 23:00:21;;;;;;;10.70;7.97;;;;;;;-0.66;100.00;101286.50;10491326;28;20040;-71
2021/01/14 23:05:23;;;;;;;15.90;12.55;;;;;;;-0.74;100.00;101290.72;10531792;28;20066;-71
2021/01/14 23:10:24;;;;;;;140.80;94.03;;;;;;;-0.73;100.00;101295.03;10540321;28;20040;-71